createdAt,value
2022-08-02T00:00:20.257Z,91.70
2022-08-02T00:02:49.392Z,91.80
2022-08-02T00:05:17.481Z,91.00
2022-08-02T00:07:45.316Z,90.40
2022-08-02T00:10:13.817Z,89.00
2022-08-02T00:12:42.965Z,87.10
2022-08-02T00:15:16.161Z,86.00
2022-08-02T00:17:44.764Z,85.50
2022-08-02T00:20:14.293Z,84.70
2022-08-02T00:22:42.117Z,84.50
2022-08-02T00:25:10.232Z,83.40
2022-08-02T00:27:38.024Z,83.20
2022-08-02T00:30:08.196Z,82.40
2022-08-02T00:32:35.969Z,81.90
2022-08-02T00:35:03.720Z,82.10
2022-08-02T00:37:31.526Z,83.20
2022-08-02T00:39:59.284Z,83.60
2022-08-02T00:42:27.127Z,84.30
2022-08-02T00:44:54.916Z,83.60
2022-08-02T00:47:24.033Z,83.20
2022-08-02T00:49:51.822Z,83.00
2022-08-02T00:52:19.647Z,83.10
2022-08-02T00:54:47.423Z,82.70
2022-08-02T00:57:15.209Z,82.50
2022-08-02T00:59:43.000Z,81.70
2022-08-02T01:02:11.354Z,81.50
2022-08-02T01:04:40.845Z,81.50
2022-08-02T01:07:12.627Z,81.40
2022-08-02T01:09:41.279Z,81.80
2022-08-02T01:12:09.849Z,82.20
2022-08-02T01:14:38.496Z,83.20
2022-08-02T01:17:13.196Z,83.20
2022-08-02T01:19:52.719Z,84.10
2022-08-02T01:23:00.165Z,84.60
2022-08-02T01:25:57.743Z,85.20
2022-08-02T01:28:35.834Z,86.10
2022-08-02T01:31:09.223Z,86.30
2022-08-02T01:33:43.815Z,86.60
2022-08-02T01:36:15.054Z,88.00
2022-08-02T01:38:47.228Z,88.20
2022-08-02T01:41:19.396Z,88.30
2022-08-02T01:43:50.546Z,88.70
2022-08-02T01:46:19.951Z,89.90
2022-08-02T01:48:50.315Z,90.10
2022-08-02T01:51:41.139Z,90.20
2022-08-02T01:54:12.844Z,90.90
2022-08-02T01:56:42.721Z,91.70
2022-08-02T01:59:15.874Z,92.00
2022-08-02T02:01:45.027Z,92.00
2022-08-02T02:04:14.116Z,91.80
2022-08-02T02:06:44.312Z,91.90
2022-08-02T02:09:13.367Z,91.90
2022-08-02T02:12:06.216Z,91.30
2022-08-02T02:14:35.512Z,91.60
2022-08-02T02:17:04.238Z,91.40
2022-08-02T02:19:35.271Z,91.10
2022-08-02T02:22:03.597Z,91.70
2022-08-02T02:24:31.746Z,92.10
2022-08-02T02:27:01.895Z,93.10
2022-08-02T02:29:32.310Z,94.20
2022-08-02T02:32:02.460Z,94.30
2022-08-02T02:34:33.311Z,93.70
2022-08-02T02:37:04.369Z,93.60
2022-08-02T02:39:33.679Z,94.70
2022-08-02T02:42:04.668Z,96.00
2022-08-02T02:44:34.121Z,96.00
2022-08-02T02:47:03.912Z,96.60
2022-08-02T02:49:35.112Z,96.60
2022-08-02T02:52:04.420Z,96.30
2022-08-02T02:54:35.326Z,96.10
2022-08-02T02:57:05.089Z,95.20
2022-08-02T02:59:33.744Z,94.50
2022-08-02T03:02:03.535Z,94.20
2022-08-02T03:04:35.979Z,94.00
2022-08-02T03:07:20.522Z,93.50
2022-08-02T03:09:54.283Z,93.20
2022-08-02T03:12:27.142Z,93.20
2022-08-02T03:14:59.539Z,93.50
2022-08-02T03:17:38.691Z,93.40
2022-08-02T03:20:10.521Z,93.20
2022-08-02T03:22:38.355Z,93.30
2022-08-02T03:25:07.118Z,93.30
2022-08-02T03:27:34.934Z,93.70
2022-08-02T03:30:02.714Z,93.50
2022-08-02T03:32:31.858Z,93.50
2022-08-02T03:34:59.744Z,93.60
2022-08-02T03:37:28.974Z,93.40
2022-08-02T03:39:57.628Z,93.40
2022-08-02T03:42:27.659Z,93.00
2022-08-02T03:44:57.051Z,93.80
2022-08-02T03:47:25.699Z,93.90
2022-08-02T03:49:55.845Z,94.30
2022-08-02T03:52:24.541Z,94.70
2022-08-02T03:54:52.472Z,94.90
2022-08-02T03:57:20.321Z,95.40
2022-08-02T03:59:48.347Z,95.90
2022-08-02T04:02:16.136Z,96.20
2022-08-02T04:04:43.871Z,96.10
2022-08-02T04:07:12.969Z,95.90
2022-08-02T04:09:40.730Z,95.70
2022-08-02T04:12:09.155Z,95.60
2022-08-02T04:14:37.279Z,96.00
2022-08-02T04:17:08.762Z,96.00
2022-08-02T04:19:40.207Z,96.50
2022-08-02T04:22:10.500Z,96.70
2022-08-02T04:24:44.723Z,97.00
2022-08-02T04:27:48.786Z,98.40
2022-08-02T04:30:02.408Z,98.10
2022-08-02T04:32:31.259Z,97.40
2022-08-02T04:35:18.836Z,96.80
2022-08-02T04:38:08.210Z,97.10
2022-08-02T04:40:37.204Z,96.50
2022-08-02T04:43:05.092Z,96.70
2022-08-02T04:45:33.502Z,96.90
2022-08-02T04:48:04.869Z,97.20
2022-08-02T04:50:33.488Z,96.80
2022-08-02T04:53:01.375Z,96.50
2022-08-02T04:55:29.819Z,97.00
2022-08-02T04:57:59.621Z,97.70
2022-08-02T05:00:28.990Z,98.40
2022-08-02T05:02:57.357Z,98.50
2022-08-02T05:05:25.425Z,98.10
2022-08-02T05:07:53.548Z,96.80
2022-08-02T05:10:21.576Z,95.90
2022-08-02T05:12:49.624Z,95.10
2022-08-02T05:15:18.983Z,95.10
2022-08-02T05:17:48.795Z,95.00
2022-08-02T05:20:17.855Z,94.60
2022-08-02T05:22:46.073Z,95.00
2022-08-02T05:25:14.104Z,94.40
2022-08-02T05:27:42.277Z,94.60
2022-08-02T05:30:11.188Z,94.50
2022-08-02T05:32:46.732Z,93.50
2022-08-02T05:35:14.797Z,93.50
2022-08-02T05:37:43.108Z,92.60
2022-08-02T05:40:13.238Z,92.00
2022-08-02T05:42:41.255Z,92.00
2022-08-02T05:45:09.975Z,91.70
2022-08-02T05:47:38.128Z,91.40
2022-08-02T05:50:09.244Z,91.80
2022-08-02T05:52:45.872Z,91.40
2022-08-02T05:55:18.144Z,91.10
2022-08-02T05:57:53.722Z,91.20
2022-08-02T06:00:22.760Z,91.10
2022-08-02T06:03:17.563Z,90.80
2022-08-02T06:05:52.280Z,90.10
2022-08-02T06:08:22.012Z,89.60
2022-08-02T06:10:51.383Z,89.70
2022-08-02T06:13:19.606Z,90.00
2022-08-02T06:15:52.576Z,90.50
2022-08-02T06:18:27.806Z,90.40
2022-08-02T06:22:32.371Z,90.00
2022-08-02T06:23:57.793Z,89.20
2022-08-02T06:26:27.684Z,89.10
2022-08-02T06:28:56.971Z,87.50
2022-08-02T06:31:24.996Z,85.30
2022-08-02T06:33:53.113Z,84.10
2022-08-02T06:36:32.736Z,83.00
2022-08-02T06:39:06.921Z,81.80
2022-08-02T06:41:40.884Z,81.00
2022-08-02T06:44:45.250Z,78.30
2022-08-02T06:47:09.632Z,76.20
2022-08-02T06:49:52.541Z,76.00
2022-08-02T06:52:28.678Z,74.50
2022-08-02T06:54:57.971Z,73.10
2022-08-02T06:57:25.733Z,71.70
2022-08-02T06:59:53.563Z,70.30
2022-08-02T07:02:21.719Z,68.80
2022-08-02T07:04:49.710Z,66.60
2022-08-02T07:07:17.622Z,64.50
2022-08-02T07:09:56.587Z,60.30
2022-08-02T07:12:29.855Z,58.80
2022-08-02T07:14:58.261Z,57.70
2022-08-02T07:17:26.168Z,56.70
2022-08-02T07:19:53.939Z,55.00
2022-08-02T07:22:24.195Z,53.10
2022-08-02T07:24:53.735Z,51.40
2022-08-02T07:27:22.088Z,50.10
2022-08-02T07:29:49.951Z,49.30
2022-08-02T07:32:18.569Z,48.50
2022-08-02T07:34:50.846Z,46.80
2022-08-02T07:37:51.182Z,45.40
2022-08-02T07:40:14.812Z,43.30
2022-08-02T07:42:48.465Z,41.80
2022-08-02T07:45:16.288Z,41.30
2022-08-02T07:47:45.509Z,40.70
2022-08-02T07:50:14.721Z,39.80
2022-08-02T07:52:44.528Z,39.20
2022-08-02T07:55:14.758Z,37.80
2022-08-02T07:57:46.446Z,36.70
2022-08-02T08:00:17.076Z,35.20
2022-08-02T08:02:45.100Z,34.80
2022-08-02T08:05:12.991Z,33.40
2022-08-02T08:07:41.282Z,32.00
2022-08-02T08:10:09.951Z,31.60
2022-08-02T08:12:39.231Z,31.00
2022-08-02T08:15:08.021Z,30.40
2022-08-02T08:17:36.056Z,29.50
2022-08-02T08:20:05.879Z,29.30
2022-08-02T08:22:33.643Z,29.40
2022-08-02T08:25:01.464Z,29.50
2022-08-02T08:27:29.244Z,29.20
2022-08-02T08:29:58.412Z,28.10
2022-08-02T08:32:27.002Z,27.00
2022-08-02T08:34:54.764Z,26.40
2022-08-02T08:37:22.559Z,26.00
2022-08-02T08:39:57.046Z,26.30
2022-08-02T08:42:27.800Z,26.60
2022-08-02T08:44:57.355Z,26.80
2022-08-02T08:47:34.815Z,26.10
2022-08-02T08:50:05.528Z,25.50
2022-08-02T08:52:36.642Z,25.20
2022-08-02T08:55:07.928Z,24.90
2022-08-02T08:57:39.248Z,23.90
2022-08-02T09:00:08.637Z,23.40
2022-08-02T09:02:38.156Z,23.70
2022-08-02T09:05:06.865Z,23.30
2022-08-02T09:07:34.628Z,23.20
2022-08-02T09:10:02.427Z,23.00
2022-08-02T09:12:30.203Z,22.70
2022-08-02T09:14:58.152Z,22.10
2022-08-02T09:17:26.324Z,22.70
2022-08-02T09:20:09.538Z,22.70
2022-08-02T09:22:37.422Z,22.80
2022-08-02T09:25:06.124Z,23.40
2022-08-02T09:27:37.141Z,22.00
2022-08-02T09:30:12.125Z,22.20
2022-08-02T09:32:46.165Z,21.50
2022-08-02T09:35:15.745Z,21.20
2022-08-02T09:37:48.351Z,21.20
2022-08-02T09:40:16.591Z,21.60
2022-08-02T09:42:59.453Z,21.60
2022-08-02T09:45:32.158Z,22.10
2022-08-02T09:48:00.033Z,23.00
2022-08-02T09:50:29.331Z,23.00
2022-08-02T09:52:57.771Z,22.70
2022-08-02T09:55:26.940Z,22.70
2022-08-02T09:57:55.097Z,22.20
2022-08-02T10:00:43.503Z,22.40
2022-08-02T10:03:16.024Z,22.20
2022-08-02T10:05:56.265Z,22.90
2022-08-02T10:08:29.647Z,22.40
2022-08-02T10:11:01.412Z,22.40
2022-08-02T10:13:31.147Z,23.00
2022-08-02T10:15:59.396Z,23.30
2022-08-02T10:18:42.538Z,23.00
2022-08-02T10:21:15.317Z,23.00
2022-08-02T10:23:45.869Z,22.60
2022-08-02T10:26:19.034Z,22.70
2022-08-02T10:28:49.321Z,22.60
2022-08-02T10:31:21.707Z,22.50
2022-08-02T10:33:52.821Z,22.00
2022-08-02T10:36:23.562Z,22.10
2022-08-02T10:38:51.919Z,22.20
2022-08-02T10:41:41.254Z,22.00
2022-08-02T10:44:24.158Z,21.70
2022-08-02T10:46:53.007Z,21.40
2022-08-02T10:49:39.611Z,21.90
2022-08-02T10:52:11.481Z,21.80
2022-08-02T10:54:41.415Z,22.40
2022-08-02T10:57:17.970Z,22.60
2022-08-02T10:59:45.961Z,22.60
2022-08-02T11:02:15.128Z,22.20
2022-08-02T11:05:03.612Z,21.80
2022-08-02T11:07:38.088Z,22.00
2022-08-02T11:10:24.180Z,22.60
2022-08-02T11:13:03.628Z,22.70
2022-08-02T11:15:47.752Z,23.40
2022-08-02T11:18:15.666Z,22.80
2022-08-02T11:20:43.744Z,22.20
2022-08-02T11:23:44.755Z,22.60
2022-08-02T11:26:44.583Z,23.40
2022-08-02T11:29:15.876Z,23.70
2022-08-02T11:31:45.742Z,24.20
2022-08-02T11:34:37.713Z,24.30
2022-08-02T11:37:01.680Z,24.50
2022-08-02T11:39:30.784Z,24.30
2022-08-02T11:41:59.950Z,23.90
2022-08-02T11:44:29.126Z,23.40
2022-08-02T11:46:58.860Z,23.70
2022-08-02T11:49:27.410Z,23.60
2022-08-02T11:51:59.356Z,23.80
2022-08-02T11:54:32.381Z,24.20
2022-08-02T11:57:20.054Z,24.70
2022-08-02T11:59:49.674Z,24.60
2022-08-02T12:02:18.981Z,24.20
2022-08-02T12:04:54.597Z,24.40
2022-08-02T12:07:34.978Z,25.30
2022-08-02T12:10:08.715Z,25.00
2022-08-02T12:12:48.939Z,25.00
2022-08-02T12:15:17.355Z,24.40
2022-08-02T12:18:06.518Z,24.00
2022-08-02T12:20:38.091Z,24.10
2022-08-02T12:23:06.053Z,24.10
2022-08-02T12:25:35.645Z,23.40
2022-08-02T12:28:22.230Z,24.10
2022-08-02T12:30:54.616Z,25.30
2022-08-02T12:33:23.940Z,26.00
2022-08-02T12:35:52.095Z,27.20
2022-08-02T12:38:20.287Z,27.10
2022-08-02T12:40:49.840Z,26.60
2022-08-02T12:43:20.863Z,26.80
2022-08-02T12:45:51.159Z,26.00
2022-08-02T12:48:38.039Z,26.10
2022-08-02T12:51:23.658Z,25.90
2022-08-02T12:53:59.118Z,26.00
2022-08-02T12:56:31.448Z,25.50
2022-08-02T12:58:59.424Z,26.20
2022-08-02T13:01:29.723Z,26.70
2022-08-02T13:04:09.556Z,27.00
2022-08-02T13:06:43.874Z,27.00
2022-08-02T13:09:17.053Z,27.50
2022-08-02T13:11:47.527Z,27.80
2022-08-02T13:14:16.305Z,28.20
2022-08-02T13:16:46.079Z,28.20
2022-08-02T13:19:15.360Z,28.30
2022-08-02T13:22:02.509Z,28.10
2022-08-02T13:24:39.850Z,28.40
2022-08-02T13:27:22.003Z,28.30
2022-08-02T13:29:50.459Z,27.50
2022-08-02T13:32:18.372Z,28.30
2022-08-02T13:34:46.451Z,28.70
2022-08-02T13:37:14.736Z,28.70
2022-08-02T13:39:45.647Z,29.00
2022-08-02T13:42:24.705Z,28.60
2022-08-02T13:44:52.512Z,28.20
2022-08-02T13:47:26.732Z,28.10
2022-08-02T13:50:04.633Z,28.30
2022-08-02T13:52:34.586Z,28.70
2022-08-02T13:55:02.541Z,28.10
2022-08-02T13:57:31.760Z,28.10
2022-08-02T13:59:59.643Z,27.90
2022-08-02T14:02:28.622Z,28.40
2022-08-02T14:04:57.003Z,28.80
2022-08-02T14:07:24.996Z,28.20
2022-08-02T14:09:52.839Z,28.30
2022-08-02T14:12:20.698Z,28.20
2022-08-02T14:14:54.987Z,28.50
2022-08-02T14:17:22.824Z,27.70
2022-08-02T14:19:50.821Z,27.50
2022-08-02T14:22:32.751Z,27.00
2022-08-02T14:25:09.098Z,26.80
2022-08-02T14:27:37.677Z,26.30
2022-08-02T14:30:10.071Z,25.90
2022-08-02T14:32:38.493Z,26.00
2022-08-02T14:35:07.269Z,26.30
2022-08-02T14:37:35.212Z,26.80
2022-08-02T14:40:03.144Z,26.80
2022-08-02T14:42:31.368Z,25.90
2022-08-02T14:44:59.179Z,25.80
2022-08-02T14:47:28.457Z,26.00
2022-08-02T14:49:58.626Z,26.30
2022-08-02T14:52:26.583Z,26.50
2022-08-02T14:54:55.722Z,26.50
2022-08-02T14:57:23.774Z,27.40
2022-08-02T14:59:51.937Z,27.20
2022-08-02T15:02:20.152Z,27.50
2022-08-02T15:04:49.304Z,27.60
2022-08-02T15:07:17.064Z,27.60
2022-08-02T15:09:44.947Z,28.10
2022-08-02T15:12:13.645Z,28.30
2022-08-02T15:14:42.717Z,28.20
2022-08-02T15:17:11.004Z,28.00
2022-08-02T15:19:57.874Z,28.00
2022-08-02T15:22:31.033Z,27.90
2022-08-02T15:25:00.337Z,28.30
2022-08-02T15:27:28.533Z,29.10
2022-08-02T15:30:00.144Z,28.60
2022-08-02T15:32:28.349Z,28.30
2022-08-02T15:34:56.125Z,28.60
2022-08-02T15:37:23.915Z,28.90
2022-08-02T15:39:54.650Z,28.90
2022-08-02T15:42:30.685Z,28.80
2022-08-02T15:44:59.941Z,28.90
2022-08-02T15:47:27.743Z,28.70
2022-08-02T15:49:55.582Z,29.00
2022-08-02T15:52:23.416Z,29.40
2022-08-02T15:54:51.244Z,29.30
2022-08-02T15:57:20.402Z,28.70
2022-08-02T15:59:48.224Z,29.20
2022-08-02T16:02:18.962Z,28.70
2022-08-02T16:04:47.225Z,29.00
2022-08-02T16:07:15.564Z,28.30
2022-08-02T16:09:43.598Z,28.60
2022-08-02T16:12:12.955Z,28.80
2022-08-02T16:14:42.262Z,29.30
2022-08-02T16:17:10.255Z,29.00
2022-08-02T16:19:49.195Z,29.30
2022-08-02T16:22:18.334Z,29.10
2022-08-02T16:24:46.091Z,29.00
2022-08-02T16:27:14.007Z,29.20
2022-08-02T16:29:43.203Z,29.10
2022-08-02T16:32:12.238Z,28.90
2022-08-02T16:35:07.211Z,29.00
2022-08-02T16:37:28.072Z,29.10
2022-08-02T16:40:15.877Z,29.00
2022-08-02T16:42:50.182Z,28.00
2022-08-02T16:45:32.844Z,28.20
2022-08-02T16:48:03.847Z,28.70
2022-08-02T16:50:33.941Z,28.20
2022-08-02T16:53:07.082Z,28.50
2022-08-02T16:55:35.935Z,28.70
2022-08-02T16:58:03.948Z,29.10
2022-08-02T17:00:42.663Z,29.00
2022-08-02T17:03:14.736Z,29.40
2022-08-02T17:05:56.623Z,29.50
2022-08-02T17:08:31.917Z,29.70
2022-08-02T17:11:03.682Z,30.10
2022-08-02T17:13:32.185Z,29.70
2022-08-02T17:16:20.830Z,29.60
2022-08-02T17:18:52.498Z,29.20
2022-08-02T17:21:20.356Z,29.40
2022-08-02T17:24:07.618Z,29.60
2022-08-02T17:26:37.225Z,29.90
2022-08-02T17:29:15.784Z,29.90
2022-08-02T17:32:05.258Z,30.30
2022-08-02T17:34:35.818Z,29.80
2022-08-02T17:37:05.524Z,30.40
2022-08-02T17:39:44.082Z,30.50
2022-08-02T17:42:23.658Z,30.80
2022-08-02T17:44:53.461Z,31.10
2022-08-02T17:47:23.260Z,31.30
2022-08-02T17:49:59.447Z,31.60
2022-08-02T17:52:50.305Z,31.30
2022-08-02T17:55:15.872Z,31.40
2022-08-02T17:57:56.966Z,32.00
2022-08-02T18:00:26.665Z,32.30
2022-08-02T18:02:55.958Z,32.00
2022-08-02T18:08:14.108Z,32.80
2022-08-02T18:10:43.228Z,33.30
2022-08-02T18:13:11.966Z,33.00
2022-08-02T18:15:39.924Z,33.20
2022-08-02T18:18:09.610Z,33.30
2022-08-02T18:20:37.447Z,33.60
2022-08-02T18:23:05.629Z,33.70
2022-08-02T18:25:46.608Z,33.70
2022-08-02T18:28:15.634Z,34.30
2022-08-02T18:30:43.671Z,34.70
2022-08-02T18:33:55.766Z,35.00
2022-08-02T18:36:00.694Z,35.50
2022-08-02T18:38:30.147Z,35.90
2022-08-02T18:41:02.110Z,35.50
2022-08-02T18:43:30.936Z,35.50
2022-08-02T18:48:53.945Z,35.60
2022-08-02T18:51:23.849Z,34.60
2022-08-02T18:53:53.814Z,35.00
2022-08-02T18:56:24.167Z,35.90
2022-08-02T18:58:53.100Z,36.50
2022-08-02T19:01:32.149Z,36.70
2022-08-02T19:04:04.923Z,37.50
2022-08-02T19:06:32.856Z,37.30
2022-08-02T19:09:05.622Z,36.70
2022-08-02T19:11:41.036Z,37.70
2022-08-02T19:14:09.925Z,37.80
2022-08-02T19:16:38.251Z,39.40
2022-08-02T19:19:09.031Z,41.10
2022-08-02T19:22:17.646Z,39.10
2022-08-02T19:24:26.998Z,38.60
2022-08-02T19:26:58.474Z,38.70
2022-08-02T19:29:42.708Z,38.70
2022-08-02T19:32:41.792Z,38.60
2022-08-02T19:35:19.699Z,39.70
2022-08-02T19:37:59.215Z,40.00
2022-08-02T19:40:29.100Z,40.50
2022-08-02T19:44:21.024Z,41.60
2022-08-02T19:45:50.704Z,42.20
2022-08-02T19:48:23.431Z,42.40
2022-08-02T19:50:56.045Z,43.00
2022-08-02T19:53:29.245Z,43.80
2022-08-02T19:56:12.650Z,43.10
2022-08-02T19:58:48.713Z,42.50
2022-08-02T20:01:19.393Z,42.20
2022-08-02T20:06:42.714Z,41.40
2022-08-02T20:09:17.049Z,41.70
2022-08-02T20:11:54.625Z,41.60
2022-08-02T20:14:27.017Z,41.80
2022-08-02T20:16:56.864Z,41.80
2022-08-02T20:19:29.725Z,42.30
2022-08-02T20:22:00.826Z,42.90
2022-08-02T20:24:29.576Z,43.50
2022-08-02T20:26:59.408Z,43.90
2022-08-02T20:29:43.016Z,44.10
2022-08-02T20:32:22.592Z,43.50
2022-08-02T20:34:52.603Z,43.30
2022-08-02T20:37:56.233Z,42.50
2022-08-02T20:40:17.189Z,43.50
2022-08-02T20:42:48.167Z,41.90
2022-08-02T20:45:16.337Z,41.70
2022-08-02T20:47:45.845Z,42.00
2022-08-02T20:50:35.509Z,42.30
2022-08-02T20:53:06.159Z,42.30
2022-08-02T20:55:35.573Z,42.60
2022-08-02T20:58:04.404Z,43.20
2022-08-02T21:00:32.629Z,43.30
2022-08-02T21:03:01.071Z,44.80
2022-08-02T21:05:43.840Z,44.10
2022-08-02T21:08:21.382Z,42.30
2022-08-02T21:10:51.997Z,42.20
2022-08-02T21:13:23.949Z,42.20
2022-08-02T21:15:52.915Z,42.00
2022-08-02T21:18:26.037Z,42.20
2022-08-02T21:21:04.263Z,42.90
2022-08-02T21:23:36.316Z,43.20
2022-08-02T21:26:04.551Z,43.50
2022-08-02T21:28:34.967Z,44.00
2022-08-02T21:31:12.360Z,44.30
2022-08-02T21:33:56.790Z,44.40
2022-08-02T21:36:30.548Z,44.60
2022-08-02T21:39:03.646Z,44.80
2022-08-02T21:41:39.301Z,45.00
2022-08-02T21:47:03.494Z,45.20
2022-08-02T21:50:09.385Z,45.30
2022-08-02T21:52:25.231Z,45.20
2022-08-02T21:54:56.094Z,45.30
2022-08-02T21:57:25.222Z,45.30
2022-08-02T22:00:03.007Z,45.50
2022-08-02T22:02:31.271Z,45.70
2022-08-02T22:04:59.224Z,45.70
2022-08-02T22:07:30.697Z,47.10
2022-08-02T22:10:10.015Z,51.10
2022-08-02T22:12:37.921Z,52.20
2022-08-02T22:15:10.176Z,52.00
2022-08-02T22:17:50.920Z,49.30
2022-08-02T22:20:21.937Z,48.60
2022-08-02T22:22:52.145Z,50.70
2022-08-02T22:25:31.327Z,52.80
2022-08-02T22:28:35.361Z,54.10
2022-08-02T22:30:56.795Z,56.30
2022-08-02T22:33:59.894Z,58.80
2022-08-02T22:36:29.527Z,59.10
2022-08-02T22:38:57.885Z,59.80
2022-08-02T22:42:01.667Z,61.70
2022-08-02T22:44:16.871Z,62.10
2022-08-02T22:46:46.810Z,62.40
2022-08-02T22:49:38.466Z,62.50
2022-08-02T22:52:06.361Z,62.00
2022-08-02T22:54:34.381Z,63.30
2022-08-02T22:57:03.574Z,64.10
2022-08-02T22:58:54.318Z,41.70
2022-08-02T22:58:59.789Z,32.50
2022-08-02T22:59:00.020Z,35.30
2022-08-02T22:59:12.383Z,45.00
2022-08-02T22:59:39.388Z,64.90
2022-08-02T23:02:08.130Z,64.50
2022-08-02T23:04:36.454Z,62.20
2022-08-02T23:07:04.453Z,60.30
2022-08-02T23:09:32.503Z,56.80
2022-08-02T23:12:00.508Z,55.30
2022-08-02T23:14:29.811Z,54.80
2022-08-02T23:17:15.216Z,55.10
2022-08-02T23:19:52.473Z,54.70
2022-08-02T23:22:21.662Z,54.60
2022-08-02T23:24:57.488Z,54.00
2022-08-02T23:27:25.573Z,53.10
2022-08-02T23:29:54.749Z,52.50
2022-08-02T23:32:25.782Z,52.10
2022-08-02T23:34:53.921Z,51.80
2022-08-02T23:37:22.554Z,52.10
2022-08-02T23:39:53.364Z,52.00
2022-08-02T23:42:23.157Z,51.40
2022-08-02T23:44:50.985Z,50.80
2022-08-02T23:47:20.363Z,50.70
2022-08-02T23:49:48.190Z,52.20
2022-08-02T23:52:16.121Z,54.00
2022-08-02T23:54:44.099Z,55.50
2022-08-02T23:57:21.034Z,56.90
2022-08-02T23:59:50.427Z,62.20
